NCAR-RAP Real-Time Weather Data

Output produced by METARs form (26 July 2017  00:46 UTC)
found at http://weather.rap.ucar.edu/surface/
 
Conditions at: KALB observed 25 July 2017  23:51 UTC
Temperature: 18.3°C (65°F)
Dewpoint: 13.9°C (57°F) [RH = 76%]
Pressure (altimeter): 30.20 inches Hg (1022.8 mb)
[Sea-level pressure: 1022.7 mb]
Winds: from the NNW (340 degrees) at 3 MPH (3 knots; 1.6 m/s)
Visibility: 10 or more miles (16+ km)
Ceiling: 4400 feet AGL
Clouds: few clouds at 1100 feet AGL
scattered clouds at 2400 feet AGL
broken clouds at 4400 feet AGL
Present Weather: no significant weather observed at this time
KALB 252351Z 34003KT 10SM FEW011 SCT024 BKN044 18/14 A3020 RMK AO2 SLP227 60000 T01830139 10194 20172 53009

Conditions at: KALB observed 25 July 2017  23:24 UTC
Temperature: 18.9°C (66°F)
Dewpoint: 14.4°C (58°F) [RH = 75%]
Pressure (altimeter): 30.19 inches Hg (1022.4 mb)
Winds: calm
Visibility: 10 or more miles (16+ km)
Ceiling: 4200 feet AGL
Clouds: few clouds at 1100 feet AGL
scattered clouds at 2400 feet AGL
broken clouds at 4200 feet AGL
Present Weather: no significant weather observed at this time
KALB 252324Z 00000KT 10SM FEW011 SCT024 BKN042 19/14 A3019 RMK AO2 T01890144

Conditions at: KALB observed 25 July 2017  22:51 UTC
Temperature: 18.9°C (66°F)
Dewpoint: 13.9°C (57°F) [RH = 73%]
Pressure (altimeter): 30.19 inches Hg (1022.4 mb)
[Sea-level pressure: 1022.1 mb]
Winds: from the NNE (20 degrees) at 5 MPH (4 knots; 2.1 m/s)
Visibility: 10 or more miles (16+ km)
Ceiling: 2400 feet AGL
Clouds: few clouds at 1100 feet AGL
broken clouds at 2400 feet AGL
broken clouds at 4200 feet AGL
Present Weather: no significant weather observed at this time
KALB 252251Z 02004KT 10SM FEW011 BKN024 BKN042 19/14 A3019 RMK AO2 SLP221 BKN024 V SCT T01890139

Conditions at: KALB observed 25 July 2017  21:51 UTC
Temperature: 18.9°C (66°F)
Dewpoint: 14.4°C (58°F) [RH = 75%]
Pressure (altimeter): 30.18 inches Hg (1022.1 mb)
[Sea-level pressure: 1022.0 mb]
Winds: from the N (360 degrees) at 5 MPH (4 knots; 2.1 m/s)
Visibility: 10 or more miles (16+ km)
Ceiling: 2200 feet AGL
Clouds: few clouds at 1100 feet AGL
scattered clouds at 1700 feet AGL
broken clouds at 2200 feet AGL
Present Weather: no significant weather observed at this time
KALB 252151Z 36004KT 10SM FEW011 SCT017 BKN022 19/14 A3018 RMK AO2 SLP220 T01890144

Conditions at: KALB observed 25 July 2017  20:51 UTC
Temperature: 18.3°C (65°F)
Dewpoint: 14.4°C (58°F) [RH = 78%]
Pressure (altimeter): 30.17 inches Hg (1021.8 mb)
[Sea-level pressure: 1021.7 mb]
Winds: from the N (350 degrees) at 6 MPH (5 knots; 2.6 m/s)
Visibility: 10 or more miles (16+ km)
Ceiling: 2200 feet AGL
Clouds: few clouds at 1100 feet AGL
scattered clouds at 1700 feet AGL
overcast cloud deck at 2200 feet AGL
Present Weather: no significant weather observed at this time
KALB 252051Z 35005KT 10SM FEW011 SCT017 OVC022 18/14 A3017 RMK AO2 SLP217 60000 T01830144 51007

Conditions at: KALB observed 25 July 2017  19:51 UTC
Temperature: 17.8°C (64°F)
Dewpoint: 13.9°C (57°F) [RH = 78%]
Pressure (altimeter): 30.17 inches Hg (1021.8 mb)
[Sea-level pressure: 1021.6 mb]
Winds: from the N (10 degrees) at 3 MPH (3 knots; 1.6 m/s)
Visibility: 10 or more miles (16+ km)
Ceiling: 2400 feet AGL
Clouds: scattered clouds at 900 feet AGL
scattered clouds at 1700 feet AGL
overcast cloud deck at 2400 feet AGL
Present Weather: no significant weather observed at this time
KALB 251951Z 01003KT 10SM SCT009 SCT017 OVC024 18/14 A3017 RMK AO2 DZE48 SLP216 P0000 T01780139

Conditions at: KALB observed 25 July 2017  18:51 UTC
Temperature: 17.2°C (63°F)
Dewpoint: 13.9°C (57°F) [RH = 81%]
Pressure (altimeter): 30.16 inches Hg (1021.4 mb)
[Sea-level pressure: 1021.3 mb]
Winds: from the NE (40 degrees) at 5 MPH (4 knots; 2.1 m/s)
Visibility: 9 miles (14 km)
Ceiling: 1700 feet AGL
Clouds: scattered clouds at 900 feet AGL
broken clouds at 1700 feet AGL
overcast cloud deck at 2400 feet AGL
Present Weather: -DZ  (light drizzle)
KALB 251851Z 04004KT 9SM -DZ SCT009 BKN017 OVC024 17/14 A3016 RMK AO2 SLP213 P0000 T01720139

Conditions at: KALB observed 25 July 2017  17:51 UTC
Temperature: 17.2°C (63°F)
Dewpoint: 13.9°C (57°F) [RH = 81%]
Pressure (altimeter): 30.15 inches Hg (1021.1 mb)
[Sea-level pressure: 1021.0 mb]
Winds: from the N (360 degrees) at 3 MPH (3 knots; 1.6 m/s)
Visibility: 10 or more miles (16+ km)
Ceiling: 1700 feet AGL
Clouds: scattered clouds at 900 feet AGL
broken clouds at 1700 feet AGL
overcast cloud deck at 2800 feet AGL
Present Weather: -DZ  (light drizzle)
KALB 251751Z 36003KT 10SM -DZ SCT009 BKN017 OVC028 17/14 A3015 RMK AO2 DZE12B48 SLP210 P0000 60016 T01720139 10172 20144 51013

Conditions at: KALB observed 25 July 2017  17:13 UTC
Temperature: 16.7°C (62°F)
Dewpoint: 14.4°C (58°F) [RH = 86%]
Pressure (altimeter): 30.14 inches Hg (1020.7 mb)
Winds: from the N (350 degrees) at 3 MPH (3 knots; 1.6 m/s)
Visibility: 10 or more miles (16+ km)
Ceiling: 1700 feet AGL
Clouds: scattered clouds at 800 feet AGL
broken clouds at 1700 feet AGL
overcast cloud deck at 2800 feet AGL
Present Weather: no significant weather observed at this time
KALB 251713Z 35003KT 10SM SCT008 BKN017 OVC028 17/14 A3014 RMK AO2 DZE12 P0000 T01670144

Conditions at: KALB observed 25 July 2017  16:51 UTC
Temperature: 16.1°C (61°F)
Dewpoint: 13.9°C (57°F) [RH = 87%]
Pressure (altimeter): 30.14 inches Hg (1020.7 mb)
[Sea-level pressure: 1020.7 mb]
Winds: from the NNE (20 degrees) at 5 MPH (4 knots; 2.1 m/s)
Visibility: 10 or more miles (16+ km)
Ceiling: 1200 feet AGL
Clouds: scattered clouds at 500 feet AGL
broken clouds at 1200 feet AGL
overcast cloud deck at 2800 feet AGL
Present Weather: -DZ  (light drizzle)
KALB 251651Z 02004KT 10SM -DZ SCT005 BKN012 OVC028 16/14 A3014 RMK AO2 SLP207 PCPN VRY LGT P0000 T01610139

Conditions at: KALB observed 25 July 2017  15:51 UTC
Temperature: 16.1°C (61°F)
Dewpoint: 13.9°C (57°F) [RH = 87%]
Pressure (altimeter): 30.13 inches Hg (1020.4 mb)
[Sea-level pressure: 1020.2 mb]
Winds: from the NNE (30 degrees) at 7 MPH (6 knots; 3.1 m/s)
Visibility: 6 miles (10 km)
Ceiling: 1200 feet AGL
Clouds: few clouds at 500 feet AGL
broken clouds at 1200 feet AGL
overcast cloud deck at 2800 feet AGL
Present Weather: -DZ BR  (light drizzle, mist)
KALB 251551Z 03006KT 6SM -DZ BR FEW005 BKN012 OVC028 16/14 A3013 RMK AO2 RAE48DZB48 SLP202 BKN V SCT P0003 T01610139

Conditions at: KALB observed 25 July 2017  15:38 UTC
Temperature: 16.1°C (61°F)
Dewpoint: 13.9°C (57°F) [RH = 87%]
Pressure (altimeter): 30.12 inches Hg (1020.1 mb)
Winds: from the N (10 degrees) at 3 MPH (3 knots; 1.6 m/s)
Visibility: 5 miles (8 km)
Ceiling: 1200 feet AGL
Clouds: scattered clouds at 500 feet AGL
broken clouds at 1200 feet AGL
overcast cloud deck at 2800 feet AGL
Present Weather: -RA BR  (light rain, mist)
KALB 251538Z 01003KT 5SM -RA BR SCT005 BKN012 OVC028 16/14 A3012 RMK AO2 BKN V SCT P0003 T01610139

Conditions at: KALB observed 25 July 2017  15:28 UTC
Temperature: 15.6°C (60°F)
Dewpoint: 13.9°C (57°F) [RH = 90%]
Pressure (altimeter): 30.12 inches Hg (1020.1 mb)
Winds: from the N (350 degrees) at 5 MPH (4 knots; 2.1 m/s)
Visibility: 2.50 miles (4.02 km)
Ceiling: 1000 feet AGL
Clouds: scattered clouds at 500 feet AGL
broken clouds at 1000 feet AGL
overcast cloud deck at 1700 feet AGL
Present Weather: -RA BR  (light rain, mist)
KALB 251528Z 35004KT 2 1/2SM -RA BR SCT005 BKN010 OVC017 16/14 A3012 RMK AO2 SFC VIS 4 P0002 T01560139

Conditions at: KALB observed 25 July 2017  15:11 UTC
Temperature: 15.6°C (60°F)
Dewpoint: 13.9°C (57°F) [RH = 90%]
Pressure (altimeter): 30.12 inches Hg (1020.1 mb)
Winds: from the NNE (20 degrees) at 5 MPH (4 knots; 2.1 m/s)
Visibility: 2.50 miles (4.02 km)
Ceiling: 900 feet AGL
Clouds: scattered clouds at 500 feet AGL
broken clouds at 900 feet AGL
overcast cloud deck at 1700 feet AGL
Present Weather: -RA BR  (light rain, mist)
KALB 251511Z 02004KT 2 1/2SM -RA BR SCT005 BKN009 OVC017 16/14 A3012 RMK AO2 P0001 T01560139

Conditions at: KALB observed 25 July 2017  14:51 UTC
Temperature: 15.6°C (60°F)
Dewpoint: 13.3°C (56°F) [RH = 86%]
Pressure (altimeter): 30.11 inches Hg (1019.7 mb)
[Sea-level pressure: 1019.8 mb]
Winds: from the NW (320 degrees) at 3 MPH (3 knots; 1.6 m/s)
Visibility: 3 miles (5 km)
Ceiling: 1500 feet AGL
Clouds: scattered clouds at 700 feet AGL
broken clouds at 1500 feet AGL
overcast cloud deck at 2400 feet AGL
Present Weather: -RA BR  (light rain, mist)
KALB 251451Z 32003KT 3SM -RA BR SCT007 BKN015 OVC024 16/13 A3011 RMK AO2 SFC VIS 4 SLP198 SCT V BKN P0003 60013 T01560133 51016

Conditions at: KALB observed 25 July 2017  14:25 UTC
Temperature: 15.6°C (60°F)
Dewpoint: 13.3°C (56°F) [RH = 86%]
Pressure (altimeter): 30.11 inches Hg (1019.7 mb)
Winds: calm
Visibility: 3 miles (5 km)
Ceiling: 1500 feet AGL
Clouds: scattered clouds at 700 feet AGL
broken clouds at 1500 feet AGL
overcast cloud deck at 2800 feet AGL
Present Weather: -RA BR  (light rain, mist)
KALB 251425Z 00000KT 3SM -RA BR SCT007 BKN015 OVC028 16/13 A3011 RMK AO2 SCT V BKN P0002 T01560133

Conditions at: KALB observed 25 July 2017  14:05 UTC
Temperature: 15.0°C (59°F)
Dewpoint: 13.3°C (56°F) [RH = 90%]
Pressure (altimeter): 30.10 inches Hg (1019.4 mb)
Winds: calm
Visibility: 2.00 miles (3.22 km)
Ceiling: 1300 feet AGL
Clouds: scattered clouds at 600 feet AGL
broken clouds at 1300 feet AGL
overcast cloud deck at 2500 feet AGL
Present Weather: -RA BR  (light rain, mist)
KALB 251405Z 00000KT 2SM -RA BR SCT006 BKN013 OVC025 15/13 A3010 RMK AO2 SFC VIS 2 1/2 SCT V BKN P0001 T01500133

Conditions at: KALB observed 25 July 2017  13:51 UTC
Temperature: 15.0°C (59°F)
Dewpoint: 13.3°C (56°F) [RH = 90%]
Pressure (altimeter): 30.10 inches Hg (1019.4 mb)
[Sea-level pressure: 1019.1 mb]
Winds: calm
Visibility: 2.00 miles (3.22 km)
Ceiling: 600 feet AGL
Clouds: broken clouds at 600 feet AGL
overcast cloud deck at 2500 feet AGL
Present Weather: -RA BR  (light rain, mist)
KALB 251351Z 00000KT 2SM -RA BR BKN006 OVC025 15/13 A3010 RMK AO2 TWR VIS 2 1/2 RAE22B38DZB22E38 SLP191 VIS 1 1/2V2 1/2 P0003 T01500133

Conditions at: KALB observed 25 July 2017  13:38 UTC
Temperature: 15.0°C (59°F)
Dewpoint: 12.8°C (55°F) [RH = 87%]
Pressure (altimeter): 30.09 inches Hg (1019.0 mb)
Winds: calm
Visibility: 2.50 miles (4.02 km)
Ceiling: 600 feet AGL
Clouds: broken clouds at 600 feet AGL
broken clouds at 1400 feet AGL
overcast cloud deck at 4800 feet AGL
Present Weather: -RA BR  (light rain, mist)
KALB 251338Z 00000KT 2 1/2SM R01/6000VP6000FT -RA BR BKN006 BKN014 OVC048 15/13 A3009 RMK AO2 RAE22B38DZB22E38 VIS 2V3 P0001 T01500128

Conditions at: KALB observed 25 July 2017  13:23 UTC
Temperature: 15.0°C (59°F)
Dewpoint: 12.8°C (55°F) [RH = 87%]
Pressure (altimeter): 30.09 inches Hg (1019.0 mb)
Winds: calm
Visibility: 5 miles (8 km)
Ceiling: 1300 feet AGL
Clouds: few clouds at 600 feet AGL
broken clouds at 1300 feet AGL
overcast cloud deck at 4800 feet AGL
Present Weather: -DZ BR  (light drizzle, mist)
KALB 251323Z 00000KT 5SM -DZ BR FEW006 BKN013 OVC048 15/13 A3009 RMK AO2 RAE22DZB22 P0000 T01500128

Conditions at: KALB observed 25 July 2017  13:01 UTC
Temperature: 14.4°C (58°F)
Dewpoint: 12.8°C (55°F) [RH = 90%]
Pressure (altimeter): 30.09 inches Hg (1019.0 mb)
Winds: calm
Visibility: 2.50 miles (4.02 km)
Ceiling: 1400 feet AGL
Clouds: few clouds at 600 feet AGL
broken clouds at 1400 feet AGL
overcast cloud deck at 2200 feet AGL
Present Weather: -RA BR  (light rain, mist)
KALB 251301Z 00000KT 2 1/2SM -RA BR FEW006 BKN014 OVC022 14/13 A3009 RMK AO2 P0000 T01440128

Conditions at: KALB observed 25 July 2017  12:51 UTC
Temperature: 15.0°C (59°F)
Dewpoint: 12.8°C (55°F) [RH = 87%]
Pressure (altimeter): 30.09 inches Hg (1019.0 mb)
[Sea-level pressure: 1018.8 mb]
Winds: calm
Visibility: 1.50 miles (2.41 km)
Ceiling: 1400 feet AGL
Clouds: few clouds at 1000 feet AGL
broken clouds at 1400 feet AGL
overcast cloud deck at 2200 feet AGL
Present Weather: -RA BR  (light rain, mist)
KALB 251251Z 00000KT 1 1/2SM R01/6000VP6000FT -RA BR FEW010 BKN014 OVC022 15/13 A3009 RMK AO2 SFC VIS 1 3/4 SLP188 P0007 T01500128